createdAt,value
2019-05-15T00:01:03.601Z,66.00
2019-05-15T00:02:10.918Z,65.70
2019-05-15T00:03:14.937Z,66.50
2019-05-15T00:04:19.365Z,65.80
2019-05-15T00:05:23.935Z,65.50
2019-05-15T00:06:28.665Z,65.40
2019-05-15T00:07:33.415Z,65.60
2019-05-15T00:08:38.636Z,65.40
2019-05-15T00:09:43.471Z,65.50
2019-05-15T00:10:48.428Z,65.60
2019-05-15T00:11:53.151Z,66.10
2019-05-15T00:12:58.072Z,66.00
2019-05-15T00:14:02.735Z,66.00
2019-05-15T00:15:09.324Z,66.10
2019-05-15T00:16:13.385Z,66.70
2019-05-15T00:17:19.209Z,66.10
2019-05-15T00:18:23.967Z,66.00
2019-05-15T00:19:28.552Z,66.20
2019-05-15T00:20:33.183Z,66.20
2019-05-15T00:21:38.311Z,65.60
2019-05-15T00:22:43.179Z,65.60
2019-05-15T00:23:49.374Z,65.50
2019-05-15T00:24:53.839Z,65.70
2019-05-15T00:25:58.578Z,66.10
2019-05-15T00:27:03.200Z,65.70
2019-05-15T00:28:09.363Z,65.80
2019-05-15T00:29:16.391Z,65.80
2019-05-15T00:30:19.908Z,66.10
2019-05-15T00:31:24.492Z,65.80
2019-05-15T00:32:28.892Z,66.00
2019-05-15T00:33:33.487Z,66.30
2019-05-15T00:34:37.993Z,66.10
2019-05-15T00:35:42.642Z,66.00
2019-05-15T00:36:48.916Z,66.40
2019-05-15T00:37:53.304Z,66.30
2019-05-15T00:38:59.096Z,66.30
2019-05-15T00:40:03.846Z,66.60
2019-05-15T00:41:09.403Z,66.30
2019-05-15T00:42:14.336Z,66.00
2019-05-15T00:43:18.735Z,66.50
2019-05-15T00:44:23.377Z,66.30
2019-05-15T00:45:27.906Z,66.60
2019-05-15T00:46:32.548Z,66.70
2019-05-15T00:47:39.357Z,66.80
2019-05-15T00:48:43.189Z,66.90
2019-05-15T00:49:48.789Z,66.70
2019-05-15T00:50:53.496Z,66.30
2019-05-15T00:51:59.140Z,67.20
2019-05-15T00:53:03.788Z,66.90
2019-05-15T00:54:08.504Z,66.40
2019-05-15T00:55:13.116Z,66.50
2019-05-15T00:56:19.506Z,66.70
2019-05-15T00:57:23.748Z,66.60
2019-05-15T00:58:28.437Z,66.40
2019-05-15T00:59:33.130Z,66.30
2019-05-15T01:00:40.598Z,66.60
2019-05-15T01:01:45.184Z,66.90
2019-05-15T01:02:49.591Z,67.10
2019-05-15T01:03:54.177Z,67.10
2019-05-15T01:04:58.660Z,67.00
2019-05-15T01:06:03.283Z,67.00
2019-05-15T01:07:08.313Z,66.90
2019-05-15T01:08:13.083Z,66.90
2019-05-15T01:09:18.710Z,66.80
2019-05-15T01:10:23.362Z,66.60
2019-05-15T01:11:28.462Z,67.10
2019-05-15T01:12:33.220Z,66.90
2019-05-15T01:13:38.825Z,66.90
2019-05-15T01:14:43.702Z,67.10
2019-05-15T01:15:48.926Z,66.90
2019-05-15T01:16:53.886Z,66.80
2019-05-15T01:17:58.359Z,66.80
2019-05-15T01:19:03.059Z,66.80
2019-05-15T01:20:08.469Z,66.80
2019-05-15T01:21:13.295Z,67.10
2019-05-15T01:22:19.493Z,68.00
2019-05-15T01:23:23.935Z,67.30
2019-05-15T01:24:28.436Z,67.00
2019-05-15T01:25:33.019Z,67.10
2019-05-15T01:26:38.474Z,67.00
2019-05-15T01:27:43.360Z,67.90
2019-05-15T01:28:49.485Z,67.40
2019-05-15T01:29:54.023Z,67.50
2019-05-15T01:30:59.224Z,67.00
2019-05-15T01:32:03.935Z,67.70
2019-05-15T01:33:08.581Z,67.20
2019-05-15T01:34:13.330Z,67.20
2019-05-15T01:35:18.082Z,67.20
2019-05-15T01:36:22.802Z,67.30
2019-05-15T01:37:28.172Z,67.50
2019-05-15T01:38:32.979Z,67.80
2019-05-15T01:39:38.501Z,67.60
2019-05-15T01:40:43.162Z,67.50
2019-05-15T01:41:49.586Z,68.00
2019-05-15T01:42:53.991Z,68.40
2019-05-15T01:43:58.396Z,68.40
2019-05-15T01:45:02.983Z,68.10
2019-05-15T01:46:08.383Z,68.10
2019-05-15T01:47:13.282Z,68.40
2019-05-15T01:48:18.963Z,68.80
2019-05-15T01:49:23.771Z,68.90
2019-05-15T01:50:29.202Z,68.60
2019-05-15T01:51:33.987Z,68.60
2019-05-15T01:52:39.061Z,68.90
2019-05-15T01:53:43.854Z,69.10
2019-05-15T01:54:48.907Z,69.20
2019-05-15T01:55:53.671Z,69.20
2019-05-15T01:56:58.774Z,69.30
2019-05-15T01:58:03.483Z,69.20
2019-05-15T01:59:08.631Z,69.60
2019-05-15T02:00:13.484Z,69.50
2019-05-15T02:01:19.134Z,69.40
2019-05-15T02:02:24.010Z,69.70
2019-05-15T02:03:28.916Z,69.90
2019-05-15T02:04:33.687Z,70.00
2019-05-15T02:05:38.997Z,69.70
2019-05-15T02:06:43.759Z,70.30
2019-05-15T02:07:48.191Z,69.90
2019-05-15T02:08:52.770Z,69.50
2019-05-15T02:09:58.271Z,69.40
2019-05-15T02:11:02.941Z,69.30
2019-05-15T02:12:08.694Z,69.10
2019-05-15T02:13:13.464Z,69.70
2019-05-15T02:14:18.929Z,69.40
2019-05-15T02:15:23.747Z,69.40
2019-05-15T02:16:28.793Z,69.80
2019-05-15T02:17:33.552Z,69.20
2019-05-15T02:18:39.099Z,69.90
2019-05-15T02:19:44.066Z,69.80
2019-05-15T02:20:49.323Z,70.00
2019-05-15T02:21:54.240Z,68.80
2019-05-15T02:22:59.134Z,69.00
2019-05-15T02:24:03.871Z,69.50
2019-05-15T02:25:08.786Z,68.80
2019-05-15T02:26:13.435Z,68.80
2019-05-15T02:27:18.645Z,68.80
2019-05-15T02:28:23.563Z,69.10
2019-05-15T02:29:28.619Z,69.00
2019-05-15T02:30:34.271Z,69.60
2019-05-15T02:31:39.344Z,68.60
2019-05-15T02:32:44.144Z,68.80
2019-05-15T02:33:49.819Z,69.10
2019-05-15T02:34:54.823Z,69.10
2019-05-15T02:35:59.512Z,69.30
2019-05-15T02:37:04.264Z,69.30
2019-05-15T02:38:10.270Z,69.20
2019-05-15T02:39:14.899Z,69.10
2019-05-15T02:40:19.359Z,69.50
2019-05-15T02:41:23.981Z,69.30
2019-05-15T02:42:29.185Z,69.50
2019-05-15T02:43:33.986Z,69.50
2019-05-15T02:44:40.048Z,69.80
2019-05-15T02:45:44.703Z,69.50
2019-05-15T02:46:50.023Z,69.80
2019-05-15T02:47:54.924Z,69.70
2019-05-15T02:48:59.359Z,69.80
2019-05-15T02:50:03.900Z,69.70
2019-05-15T02:51:09.736Z,69.70
2019-05-15T02:52:15.076Z,69.80
2019-05-15T02:53:19.523Z,69.70
2019-05-15T02:54:24.092Z,69.50
2019-05-15T02:55:29.621Z,69.80
2019-05-15T02:56:34.565Z,69.90
2019-05-15T02:57:39.598Z,70.60
2019-05-15T02:58:44.495Z,70.20
2019-05-15T02:59:49.821Z,70.30
2019-05-15T03:00:54.918Z,70.30
2019-05-15T03:01:59.651Z,70.50
2019-05-15T03:03:04.354Z,70.70
2019-05-15T03:04:09.192Z,70.80
2019-05-15T03:05:14.068Z,70.70
2019-05-15T03:06:19.243Z,71.00
2019-05-15T03:07:24.035Z,71.80
2019-05-15T03:08:29.840Z,71.00
2019-05-15T03:09:34.673Z,71.50
2019-05-15T03:10:40.526Z,71.90
2019-05-15T03:11:45.291Z,72.30
2019-05-15T03:12:49.701Z,71.30
2019-05-15T03:13:54.304Z,71.70
2019-05-15T03:14:59.888Z,71.70
2019-05-15T03:16:04.588Z,72.10
2019-05-15T03:17:09.814Z,72.20
2019-05-15T03:18:14.464Z,72.20
2019-05-15T03:19:19.515Z,72.30
2019-05-15T03:20:24.259Z,72.10
2019-05-15T03:21:29.517Z,72.50
2019-05-15T03:22:34.294Z,72.40
2019-05-15T03:23:40.507Z,72.50
2019-05-15T03:24:45.036Z,72.60
2019-05-15T03:25:49.425Z,73.40
2019-05-15T03:26:54.004Z,73.00
2019-05-15T03:27:59.564Z,73.20
2019-05-15T03:29:04.350Z,73.00
2019-05-15T03:30:13.370Z,73.00
2019-05-15T03:31:35.112Z,73.30
2019-05-15T03:32:32.787Z,73.20
2019-05-15T03:33:35.082Z,73.20
2019-05-15T03:34:38.384Z,73.10
2019-05-15T03:35:42.747Z,73.90
2019-05-15T03:36:47.314Z,73.60
2019-05-15T03:37:51.986Z,73.50
2019-05-15T03:38:58.557Z,73.70
2019-05-15T03:40:02.698Z,73.80
2019-05-15T03:41:09.874Z,73.80
2019-05-15T03:42:13.315Z,73.90
2019-05-15T03:43:18.600Z,73.80
2019-05-15T03:44:23.420Z,73.80
2019-05-15T03:45:29.716Z,74.00
2019-05-15T03:46:39.578Z,74.10
2019-05-15T03:47:42.325Z,74.20
2019-05-15T03:48:48.754Z,74.30
2019-05-15T03:49:53.209Z,74.50
2019-05-15T03:50:59.704Z,74.40
2019-05-15T03:52:03.845Z,74.50
2019-05-15T03:53:10.204Z,74.70
2019-05-15T03:54:14.492Z,74.70
2019-05-15T03:55:19.072Z,75.00
2019-05-15T03:56:23.479Z,75.10
2019-05-15T03:57:30.367Z,75.20
2019-05-15T03:58:34.137Z,75.30
2019-05-15T03:59:39.870Z,75.40
2019-05-15T04:00:44.531Z,75.60
2019-05-15T04:01:49.805Z,75.80
2019-05-15T04:02:54.313Z,75.90
2019-05-15T04:03:59.849Z,75.90
2019-05-15T04:05:04.912Z,76.20
2019-05-15T04:06:10.218Z,76.30
2019-05-15T04:07:14.786Z,76.20
2019-05-15T04:08:19.677Z,76.30
2019-05-15T04:09:24.275Z,76.00
2019-05-15T04:10:29.089Z,76.20
2019-05-15T04:11:33.477Z,76.20
2019-05-15T04:12:40.373Z,76.00
2019-05-15T04:13:44.108Z,76.00
2019-05-15T04:14:50.037Z,76.30
2019-05-15T04:15:54.695Z,76.40
2019-05-15T04:16:59.680Z,76.30
2019-05-15T04:18:04.281Z,76.30
2019-05-15T04:19:09.688Z,76.20
2019-05-15T04:20:14.393Z,76.00
2019-05-15T04:21:20.096Z,76.20
2019-05-15T04:22:24.766Z,76.20
2019-05-15T04:23:30.179Z,76.40
2019-05-15T04:24:34.871Z,76.20
2019-05-15T04:25:39.608Z,76.30
2019-05-15T04:26:44.168Z,76.40
2019-05-15T04:27:49.376Z,76.30
2019-05-15T04:28:53.947Z,76.30
2019-05-15T04:29:59.253Z,75.80
2019-05-15T04:31:03.772Z,76.00
2019-05-15T04:32:10.595Z,76.00
2019-05-15T04:33:14.405Z,76.50
2019-05-15T04:34:19.509Z,77.40
2019-05-15T04:35:24.203Z,76.60
2019-05-15T04:36:29.728Z,76.40
2019-05-15T04:37:34.307Z,76.40
2019-05-15T04:38:39.435Z,76.40
2019-05-15T04:39:44.135Z,76.60
2019-05-15T04:40:50.059Z,76.60
2019-05-15T04:41:54.727Z,76.40
2019-05-15T04:42:59.479Z,76.40
2019-05-15T04:44:03.903Z,77.00
2019-05-15T04:45:10.069Z,76.60
2019-05-15T04:46:14.599Z,76.40
2019-05-15T04:47:19.360Z,76.80
2019-05-15T04:48:24.284Z,76.80
2019-05-15T04:49:29.332Z,76.70
2019-05-15T04:50:33.894Z,76.50
2019-05-15T04:51:39.038Z,76.40
2019-05-15T04:52:43.787Z,76.20
2019-05-15T04:53:50.376Z,76.30
2019-05-15T04:54:54.508Z,76.50
2019-05-15T04:55:59.813Z,76.70
2019-05-15T04:57:04.792Z,75.50
2019-05-15T04:58:10.157Z,75.50
2019-05-15T04:59:14.866Z,74.90
2019-05-15T05:00:39.823Z,75.20
2019-05-15T05:01:43.350Z,74.50
2019-05-15T05:02:49.697Z,74.00
2019-05-15T05:03:54.151Z,74.10
2019-05-15T05:04:58.926Z,73.80
2019-05-15T05:06:03.447Z,73.80
2019-05-15T05:07:09.436Z,72.80
2019-05-15T05:08:14.033Z,73.10
2019-05-15T05:09:19.893Z,73.40
2019-05-15T05:10:24.604Z,73.10
2019-05-15T05:11:29.619Z,72.70
2019-05-15T05:12:34.003Z,72.30
2019-05-15T05:13:39.174Z,72.30
2019-05-15T05:14:44.115Z,71.60
2019-05-15T05:15:50.040Z,71.80
2019-05-15T05:16:55.017Z,71.50
2019-05-15T05:17:59.582Z,71.00
2019-05-15T05:19:03.912Z,70.60
2019-05-15T05:20:08.553Z,70.60
2019-05-15T05:21:13.167Z,69.80
2019-05-15T05:22:18.712Z,68.30
2019-05-15T05:23:23.255Z,64.90
2019-05-15T05:24:28.106Z,61.00
2019-05-15T05:25:32.635Z,55.00
2019-05-15T05:26:38.307Z,51.80
2019-05-15T05:27:42.833Z,47.70
2019-05-15T05:28:48.813Z,44.40
2019-05-15T05:29:53.520Z,43.10
2019-05-15T05:30:58.834Z,40.70
2019-05-15T05:32:03.545Z,39.10
2019-05-15T05:33:08.534Z,37.20
2019-05-15T05:34:13.037Z,35.80
2019-05-15T05:35:18.565Z,35.50
2019-05-15T05:36:23.085Z,34.70
2019-05-15T05:37:27.985Z,34.80
2019-05-15T05:38:32.462Z,33.70
2019-05-15T05:39:39.279Z,33.30
2019-05-15T05:40:43.092Z,34.70
2019-05-15T05:41:48.728Z,35.40
2019-05-15T05:42:53.195Z,35.10
2019-05-15T05:43:58.702Z,35.00
2019-05-15T05:45:03.212Z,37.00
2019-05-15T05:46:09.199Z,38.10
2019-05-15T05:47:13.835Z,39.00
2019-05-15T05:48:19.014Z,38.80
2019-05-15T05:49:23.622Z,39.30
2019-05-15T05:50:44.169Z,40.70
2019-05-15T05:51:48.233Z,41.60
2019-05-15T05:52:52.846Z,40.50
2019-05-15T05:53:59.010Z,42.00
2019-05-15T05:55:03.750Z,42.30
2019-05-15T05:56:08.934Z,42.60
2019-05-15T05:57:13.792Z,42.20
2019-05-15T05:58:19.650Z,41.50
2019-05-15T05:59:24.627Z,41.10
2019-05-15T06:00:36.222Z,40.80
2019-05-15T06:01:43.957Z,40.10
2019-05-15T06:02:51.918Z,40.00
2019-05-15T06:03:53.173Z,39.40
2019-05-15T06:04:58.238Z,40.00
2019-05-15T06:06:02.971Z,40.30
2019-05-15T06:07:13.760Z,40.40
2019-05-15T06:08:13.648Z,40.20
2019-05-15T06:09:21.278Z,41.00
2019-05-15T06:10:25.949Z,41.70
2019-05-15T06:11:30.298Z,41.80
2019-05-15T06:12:34.987Z,42.50
2019-05-15T06:13:39.399Z,42.80
2019-05-15T06:14:43.995Z,42.40
2019-05-15T06:15:49.083Z,43.10
2019-05-15T06:16:53.819Z,43.40
2019-05-15T06:17:58.583Z,43.50
2019-05-15T06:19:03.287Z,43.60
2019-05-15T06:20:08.157Z,42.70
2019-05-15T06:21:12.966Z,42.50
2019-05-15T06:22:18.829Z,41.80
2019-05-15T06:23:25.881Z,41.20
2019-05-15T06:24:30.652Z,41.00
2019-05-15T06:25:35.399Z,41.20
2019-05-15T06:26:39.798Z,42.20
2019-05-15T06:27:44.454Z,41.90
2019-05-15T06:28:49.187Z,41.50
2019-05-15T06:29:53.959Z,39.40
2019-05-15T06:31:00.695Z,39.90
2019-05-15T06:32:04.601Z,40.20
2019-05-15T06:33:13.277Z,39.30
2019-05-15T06:34:17.720Z,39.80
2019-05-15T06:35:21.430Z,39.20
2019-05-15T06:36:28.646Z,39.90
2019-05-15T06:37:32.135Z,39.60
2019-05-15T06:38:39.025Z,39.80
2019-05-15T06:39:42.834Z,39.90
2019-05-15T06:40:48.598Z,40.40
2019-05-15T06:41:53.221Z,40.60
2019-05-15T06:42:59.333Z,41.30
2019-05-15T06:44:04.262Z,40.90
2019-05-15T06:45:08.947Z,41.80
2019-05-15T06:46:13.380Z,41.80
2019-05-15T06:47:18.103Z,41.30
2019-05-15T06:48:22.616Z,40.70
2019-05-15T06:49:28.602Z,40.70
2019-05-15T06:50:34.710Z,41.10
2019-05-15T06:51:39.322Z,41.10
2019-05-15T06:52:43.745Z,40.70
2019-05-15T06:53:49.157Z,41.20
2019-05-15T06:54:53.780Z,40.70
2019-05-15T06:55:58.617Z,41.60
2019-05-15T06:57:03.155Z,41.60
2019-05-15T06:58:09.258Z,40.80
2019-05-15T06:59:13.922Z,40.60
2019-05-15T07:00:19.144Z,40.40
2019-05-15T07:01:23.795Z,41.10
2019-05-15T07:02:28.597Z,40.20
2019-05-15T07:03:33.120Z,40.00
2019-05-15T07:04:38.388Z,40.60
2019-05-15T07:05:43.016Z,40.80
2019-05-15T07:06:48.853Z,40.90
2019-05-15T07:07:53.520Z,39.70
2019-05-15T07:08:58.752Z,39.30
2019-05-15T07:10:03.283Z,39.40
2019-05-15T07:11:08.732Z,38.90
2019-05-15T07:12:13.529Z,39.40
2019-05-15T07:13:18.527Z,39.50
2019-05-15T07:14:23.178Z,39.10
2019-05-15T07:15:27.932Z,38.70
2019-05-15T07:16:32.402Z,39.20
2019-05-15T07:17:39.338Z,39.80
2019-05-15T07:18:43.097Z,39.90
2019-05-15T07:19:48.599Z,40.40
2019-05-15T07:20:53.215Z,40.50
2019-05-15T07:21:58.156Z,38.80
2019-05-15T07:23:02.701Z,38.90
2019-05-15T07:24:09.155Z,39.60
2019-05-15T07:25:13.371Z,39.40
2019-05-15T07:26:18.264Z,39.30
2019-05-15T07:27:22.895Z,39.70
2019-05-15T07:28:28.875Z,39.40
2019-05-15T07:29:33.423Z,39.60
2019-05-15T07:30:41.092Z,38.60
2019-05-15T07:31:44.071Z,38.90
2019-05-15T07:32:48.910Z,39.10
2019-05-15T07:33:53.363Z,39.00
2019-05-15T07:34:58.044Z,38.90
2019-05-15T07:36:02.486Z,39.50
2019-05-15T07:37:09.908Z,39.10
2019-05-15T07:38:14.423Z,39.30
2019-05-15T07:39:19.098Z,39.60
2019-05-15T07:40:23.484Z,39.20
2019-05-15T07:41:28.559Z,38.30
2019-05-15T07:42:32.948Z,38.90
2019-05-15T07:43:38.457Z,39.80
2019-05-15T07:44:43.099Z,38.70
2019-05-15T07:45:53.659Z,39.20
2019-05-15T07:46:53.838Z,38.00
2019-05-15T07:47:58.625Z,38.80
2019-05-15T07:49:03.047Z,39.20
2019-05-15T07:50:08.873Z,39.00
2019-05-15T07:51:13.622Z,39.40
2019-05-15T07:52:19.344Z,39.00
2019-05-15T07:53:24.028Z,38.60
2019-05-15T07:54:31.806Z,38.50
2019-05-15T07:55:39.075Z,38.20
2019-05-15T07:56:42.355Z,38.30
2019-05-15T07:57:49.435Z,38.80
2019-05-15T07:58:53.046Z,38.40
2019-05-15T07:59:58.755Z,37.90
2019-05-15T08:01:05.372Z,38.30
2019-05-15T08:02:09.565Z,37.90
2019-05-15T08:03:14.163Z,37.30
2019-05-15T08:04:28.528Z,37.20
2019-05-15T08:05:24.914Z,38.00
2019-05-15T08:06:29.334Z,37.50
2019-05-15T08:07:33.919Z,37.20
2019-05-15T08:08:39.369Z,37.30
2019-05-15T08:09:44.272Z,37.50
2019-05-15T08:10:49.260Z,36.90
2019-05-15T08:11:53.928Z,36.90
2019-05-15T08:12:58.360Z,37.30
2019-05-15T08:14:03.730Z,36.30
2019-05-15T08:15:09.163Z,35.90
2019-05-15T08:16:13.753Z,37.00
2019-05-15T08:17:21.330Z,34.50
2019-05-15T08:18:24.453Z,34.50
2019-05-15T08:19:29.011Z,34.10
2019-05-15T08:20:33.671Z,32.90
2019-05-15T08:21:38.637Z,32.80
2019-05-15T08:22:45.879Z,33.00
2019-05-15T08:23:49.447Z,34.30
2019-05-15T08:24:54.173Z,33.60
2019-05-15T08:25:58.738Z,33.70
2019-05-15T08:27:03.327Z,33.80
2019-05-15T08:28:08.781Z,32.90
2019-05-15T08:29:13.552Z,32.00
2019-05-15T08:30:19.574Z,31.20
2019-05-15T08:31:24.174Z,31.10
2019-05-15T08:32:28.582Z,31.40
2019-05-15T08:33:33.175Z,31.40
2019-05-15T08:34:38.701Z,30.80
2019-05-15T08:35:47.762Z,32.20
2019-05-15T08:36:49.465Z,31.40
2019-05-15T08:37:54.334Z,30.30
2019-05-15T08:38:59.147Z,29.60
2019-05-15T08:40:03.837Z,30.10
2019-05-15T08:41:11.574Z,29.10
2019-05-15T08:42:14.660Z,28.40
2019-05-15T08:43:19.041Z,28.30
2019-05-15T08:44:23.611Z,27.60
2019-05-15T08:45:28.355Z,27.20
2019-05-15T08:46:33.078Z,27.30
2019-05-15T08:47:38.586Z,27.10
2019-05-15T08:48:43.299Z,25.90
2019-05-15T08:49:48.464Z,25.20
2019-05-15T08:50:53.224Z,25.90
2019-05-15T08:51:58.447Z,24.30
2019-05-15T08:53:03.219Z,24.30
2019-05-15T08:54:08.497Z,23.80
2019-05-15T08:55:13.304Z,23.50
2019-05-15T08:56:19.416Z,23.20
2019-05-15T08:57:24.048Z,23.40
2019-05-15T08:58:29.134Z,23.20
2019-05-15T08:59:33.868Z,22.50
2019-05-15T09:00:40.103Z,22.20
2019-05-15T09:01:44.556Z,22.10
2019-05-15T09:02:49.052Z,23.30
2019-05-15T09:03:53.772Z,22.80
2019-05-15T09:04:58.209Z,22.70
2019-05-15T09:06:02.792Z,22.30
2019-05-15T09:07:09.278Z,22.40
2019-05-15T09:08:13.420Z,22.20
2019-05-15T09:09:18.274Z,22.50
2019-05-15T09:10:22.927Z,22.40
2019-05-15T09:11:28.337Z,23.30
2019-05-15T09:12:33.080Z,22.50
2019-05-15T09:13:43.518Z,21.80
2019-05-15T09:14:43.739Z,21.90
2019-05-15T09:15:48.432Z,21.70
2019-05-15T09:16:53.061Z,21.90
2019-05-15T09:18:11.656Z,21.80
2019-05-15T09:19:05.062Z,21.70
2019-05-15T09:20:09.498Z,21.60
2019-05-15T09:21:14.181Z,21.70
2019-05-15T09:22:18.881Z,21.60
2019-05-15T09:23:25.689Z,21.50
2019-05-15T09:24:30.092Z,22.20
2019-05-15T09:25:34.681Z,21.80
2019-05-15T09:26:40.411Z,21.50
2019-05-15T09:27:45.260Z,21.80
2019-05-15T09:28:49.685Z,21.20
2019-05-15T09:29:54.247Z,20.80
2019-05-15T09:30:59.210Z,20.80
2019-05-15T09:32:03.871Z,20.40
2019-05-15T09:33:08.801Z,20.70
2019-05-15T09:34:13.498Z,20.50
2019-05-15T09:35:19.904Z,20.50
2019-05-15T09:36:24.523Z,20.20
2019-05-15T09:37:28.995Z,20.30
2019-05-15T09:38:33.573Z,20.20
2019-05-15T09:39:38.177Z,20.10
2019-05-15T09:40:46.475Z,20.30
2019-05-15T09:41:48.993Z,20.00
2019-05-15T09:42:53.562Z,20.00
2019-05-15T09:43:58.047Z,19.90
2019-05-15T09:45:02.688Z,19.60
2019-05-15T09:46:09.725Z,20.20
2019-05-15T09:47:13.356Z,20.40
2019-05-15T09:48:19.803Z,20.70
2019-05-15T09:49:24.001Z,20.70
2019-05-15T09:50:28.399Z,20.50
2019-05-15T09:51:33.060Z,21.00
2019-05-15T09:52:38.777Z,20.10
2019-05-15T09:53:43.778Z,20.10
2019-05-15T09:54:49.028Z,20.40
2019-05-15T09:55:54.081Z,20.20
2019-05-15T09:56:58.683Z,20.00
2019-05-15T09:58:03.348Z,20.00
2019-05-15T09:59:08.867Z,20.20
2019-05-15T10:00:13.973Z,20.20
2019-05-15T10:01:19.661Z,19.90
2019-05-15T10:02:25.319Z,19.80
2019-05-15T10:03:29.757Z,19.80
2019-05-15T10:04:34.325Z,20.20
2019-05-15T10:05:38.946Z,20.10
2019-05-15T10:06:43.634Z,20.00
2019-05-15T10:07:48.111Z,20.30
2019-05-15T10:08:52.676Z,20.30
2019-05-15T10:09:57.090Z,20.20
2019-05-15T10:11:01.715Z,20.70
2019-05-15T10:12:08.355Z,20.30
2019-05-15T10:13:12.473Z,19.70
2019-05-15T10:14:19.276Z,19.80
2019-05-15T10:15:23.102Z,19.90
2019-05-15T10:16:27.502Z,20.60
2019-05-15T10:17:32.114Z,19.60
2019-05-15T10:18:38.686Z,19.80
2019-05-15T10:19:42.746Z,19.50
2019-05-15T10:20:47.152Z,19.20
2019-05-15T10:21:53.493Z,19.60
2019-05-15T10:22:59.018Z,19.30
2019-05-15T10:24:03.884Z,19.40
2019-05-15T10:25:08.500Z,19.40
2019-05-15T10:26:14.384Z,19.10
2019-05-15T10:27:18.942Z,19.60
2019-05-15T10:28:23.531Z,19.60
2019-05-15T10:29:28.204Z,20.00
2019-05-15T10:30:32.920Z,20.00
2019-05-15T10:31:38.918Z,19.70
2019-05-15T10:32:43.660Z,20.00
2019-05-15T10:33:49.217Z,20.00
2019-05-15T10:34:53.898Z,20.00
2019-05-15T10:35:59.026Z,19.90
2019-05-15T10:37:03.884Z,19.80
2019-05-15T10:38:08.956Z,19.70
2019-05-15T10:39:13.866Z,19.90
2019-05-15T10:40:20.440Z,19.70
2019-05-15T10:41:24.998Z,20.20
2019-05-15T10:42:29.429Z,20.20
2019-05-15T10:43:34.038Z,20.30
2019-05-15T10:44:39.202Z,20.20
2019-05-15T10:45:43.939Z,20.10
2019-05-15T10:46:48.548Z,19.80
2019-05-15T10:47:53.244Z,19.50
2019-05-15T10:48:58.582Z,19.20
2019-05-15T10:50:03.397Z,19.90
2019-05-15T10:51:10.251Z,19.50
2019-05-15T10:52:14.006Z,19.50
2019-05-15T10:53:19.883Z,19.60
2019-05-15T10:54:24.501Z,19.60
2019-05-15T10:55:28.967Z,19.60
2019-05-15T10:56:33.691Z,20.10
2019-05-15T10:57:42.981Z,20.30
2019-05-15T10:58:44.424Z,20.70
2019-05-15T10:59:48.802Z,20.90
2019-05-15T11:00:53.413Z,21.10
2019-05-15T11:01:59.079Z,20.90
2019-05-15T11:03:04.636Z,20.70
2019-05-15T11:04:09.432Z,20.50
2019-05-15T11:05:14.152Z,20.60
2019-05-15T11:06:18.597Z,20.20
2019-05-15T11:07:23.188Z,20.10
2019-05-15T11:08:29.031Z,20.50
2019-05-15T11:09:33.767Z,20.40
2019-05-15T11:10:41.744Z,20.40
2019-05-15T11:11:44.432Z,20.20
2019-05-15T11:12:48.847Z,19.90
2019-05-15T11:13:55.228Z,19.70
2019-05-15T11:14:59.655Z,20.00
2019-05-15T11:16:04.262Z,19.80
2019-05-15T11:17:08.651Z,20.30
2019-05-15T11:18:13.420Z,20.20
2019-05-15T11:19:18.064Z,20.70
2019-05-15T11:20:22.638Z,21.10
2019-05-15T11:21:27.046Z,20.80
2019-05-15T11:22:31.684Z,20.50
2019-05-15T11:23:42.172Z,20.60
2019-05-15T11:24:42.360Z,20.80
2019-05-15T11:25:48.678Z,20.80
2019-05-15T11:26:56.080Z,20.20
2019-05-15T11:27:59.319Z,20.00
2019-05-15T11:29:03.937Z,20.10
2019-05-15T11:30:08.369Z,19.80
2019-05-15T11:31:13.147Z,20.10
2019-05-15T11:32:17.552Z,19.70
2019-05-15T11:33:22.184Z,20.20
2019-05-15T11:34:28.812Z,19.90
2019-05-15T11:35:32.916Z,19.90
2019-05-15T11:36:38.683Z,20.10
2019-05-15T11:37:46.399Z,20.00
2019-05-15T11:38:49.966Z,20.00
2019-05-15T11:39:54.592Z,20.10
2019-05-15T11:40:58.992Z,20.20
2019-05-15T11:42:03.568Z,20.30
2019-05-15T11:43:08.593Z,20.00
2019-05-15T11:44:13.358Z,20.40
2019-05-15T11:45:18.503Z,20.30
2019-05-15T11:46:25.664Z,20.80
2019-05-15T11:47:29.647Z,21.50
2019-05-15T11:48:34.254Z,22.00
2019-05-15T11:49:38.682Z,22.40
2019-05-15T11:50:43.275Z,22.60
2019-05-15T11:51:49.170Z,23.00
2019-05-15T11:52:53.968Z,23.70
2019-05-15T11:53:58.770Z,24.30
2019-05-15T11:55:03.508Z,24.10
2019-05-15T11:56:09.457Z,24.60
2019-05-15T11:57:14.360Z,24.50
2019-05-15T11:58:19.326Z,24.50
2019-05-15T11:59:24.090Z,24.50
2019-05-15T12:00:30.292Z,24.30
2019-05-15T12:01:35.015Z,24.30
2019-05-15T12:02:39.439Z,24.60
2019-05-15T12:03:44.191Z,25.20
2019-05-15T12:04:48.719Z,24.70
2019-05-15T12:05:53.322Z,25.20
2019-05-15T12:07:01.681Z,25.00
2019-05-15T12:08:03.971Z,25.00
2019-05-15T12:09:09.159Z,24.90
2019-05-15T12:10:14.089Z,24.60
2019-05-15T12:11:31.722Z,24.80
2019-05-15T12:12:24.729Z,25.20
2019-05-15T12:13:29.282Z,24.70
2019-05-15T12:14:33.907Z,24.60
2019-05-15T12:15:38.882Z,24.60
2019-05-15T12:17:00.916Z,25.30
2019-05-15T12:17:49.792Z,25.10
2019-05-15T12:18:54.534Z,25.20
2019-05-15T12:20:05.890Z,25.60
2019-05-15T12:21:05.631Z,25.80
2019-05-15T12:22:10.031Z,24.80
2019-05-15T12:23:14.644Z,25.20
2019-05-15T12:24:19.104Z,25.40
2019-05-15T12:25:28.397Z,25.60
2019-05-15T12:26:29.812Z,26.20
2019-05-15T12:27:34.399Z,26.50
2019-05-15T12:28:40.505Z,26.20
2019-05-15T12:29:45.155Z,26.50
2019-05-15T12:30:49.546Z,26.30
2019-05-15T12:31:54.152Z,26.50
2019-05-15T12:33:00.228Z,26.70
2019-05-15T12:34:04.918Z,27.00
2019-05-15T12:35:09.339Z,26.80
2019-05-15T12:36:13.921Z,27.00
2019-05-15T12:37:19.746Z,27.40
2019-05-15T12:38:24.413Z,27.60
2019-05-15T12:39:30.429Z,27.40
2019-05-15T13:00:29.664Z,29.00
2019-05-15T13:01:32.592Z,29.10
2019-05-15T13:02:38.725Z,29.10
2019-05-15T13:03:43.298Z,29.70
2019-05-15T13:04:47.870Z,29.90
2019-05-15T13:05:52.354Z,30.00
2019-05-15T13:07:12.186Z,30.50
2019-05-15T13:08:03.043Z,30.10
2019-05-15T13:09:08.782Z,30.10
2019-05-15T13:10:13.209Z,30.00
2019-05-15T13:11:18.073Z,30.00
2019-05-15T13:12:22.523Z,29.90
2019-05-15T13:13:28.317Z,29.70
2019-05-15T13:14:32.897Z,29.90
2019-05-15T13:15:41.081Z,30.00
2019-05-15T13:16:43.580Z,29.90
2019-05-15T13:17:52.764Z,29.90
2019-05-15T13:18:54.322Z,30.10
2019-05-15T13:19:58.914Z,30.40
2019-05-15T13:21:03.331Z,30.00
2019-05-15T13:22:17.841Z,29.90
2019-05-15T13:23:13.961Z,29.90
2019-05-15T13:24:19.395Z,29.80
2019-05-15T13:25:23.997Z,30.00
2019-05-15T13:26:28.578Z,29.80
2019-05-15T13:27:32.976Z,29.80
2019-05-15T13:28:37.613Z,29.10
2019-05-15T13:29:42.205Z,29.10
2019-05-15T13:30:49.000Z,29.30
2019-05-15T13:31:52.867Z,29.50
2019-05-15T13:32:58.723Z,30.40
2019-05-15T13:34:03.269Z,30.20
2019-05-15T13:35:09.885Z,30.50
2019-05-15T13:36:13.938Z,31.00
2019-05-15T13:37:26.943Z,30.00
2019-05-15T13:38:24.591Z,29.90
2019-05-15T13:39:29.182Z,30.20
2019-05-15T13:40:37.906Z,30.70
2019-05-15T13:41:39.884Z,30.40
2019-05-15T13:42:44.319Z,30.40
2019-05-15T13:43:49.334Z,30.50
2019-05-15T13:44:53.797Z,30.80
2019-05-15T13:45:58.675Z,31.70
2019-05-15T13:47:03.144Z,30.90
2019-05-15T13:48:09.019Z,30.90
2019-05-15T13:49:13.547Z,30.90
2019-05-15T13:50:19.509Z,31.10
2019-05-15T13:51:24.016Z,31.00
2019-05-15T13:52:28.606Z,31.40
2019-05-15T13:53:33.003Z,31.40
2019-05-15T13:54:38.033Z,31.10
2019-05-15T13:55:43.125Z,31.20
2019-05-15T13:56:48.775Z,31.20
2019-05-15T13:57:53.632Z,31.30
2019-05-15T13:58:58.724Z,31.00
2019-05-15T14:00:03.309Z,31.10
2019-05-15T14:01:09.464Z,31.30
2019-05-15T14:02:14.141Z,30.50
2019-05-15T14:03:18.828Z,30.00
2019-05-15T14:04:23.225Z,30.40
2019-05-15T14:05:29.968Z,30.10
2019-05-15T14:06:34.424Z,30.00
2019-05-15T14:07:48.705Z,30.00
2019-05-15T14:08:45.103Z,30.40
2019-05-15T14:09:49.713Z,30.60
2019-05-15T14:10:58.217Z,31.00
2019-05-15T14:12:02.958Z,31.10
2019-05-15T14:13:07.350Z,31.10
2019-05-15T14:14:11.943Z,31.50
2019-05-15T14:15:16.332Z,31.20
2019-05-15T14:16:20.911Z,31.40
2019-05-15T14:17:25.349Z,31.90
2019-05-15T14:18:29.940Z,32.30